Time;durP1;ratioP1;P1;durP2;ratioP2;P2;SDS_P1;SDS_P2;PMS_P1;PMS_P2;Temp;Humidity;BMP_temperature;BMP_pressure;BME280_temperature;BME280_humidity;BME280_pressure;Samples;Min_cycle;Max_cycle;Signal;HPM_P1;HPM_P2
2021/12/30 00:01:39;;;;;;;27.27;13.55;;;7.50;99.90;;;;;;5091145;28;20031;-50
2021/12/30 00:04:04;;;;;;;27.13;13.35;;;7.50;99.90;;;;;;5091202;28;20051;-47
2021/12/30 00:06:37;;;;;;;25.00;12.57;;;7.60;99.90;;;;;;5091201;28;20024;-47
2021/12/30 00:09:03;;;;;;;24.38;13.40;;;7.60;99.90;;;;;;5090326;28;20054;-50
2021/12/30 00:11:28;;;;;;;24.30;12.75;;;7.70;99.90;;;;;;5091107;28;20063;-49
2021/12/30 00:13:55;;;;;;;28.20;14.05;;;7.70;99.90;;;;;;5072909;28;20048;-46
2021/12/30 00:16:20;;;;;;;27.70;13.88;;;7.80;99.90;;;;;;5070586;28;20036;-49
2021/12/30 00:18:47;;;;;;;24.90;13.27;;;7.90;99.90;;;;;;5068817;28;20021;-48
2021/12/30 00:21:13;;;;;;;25.52;13.02;;;8.00;99.90;;;;;;5070707;28;20013;-47
2021/12/30 00:23:39;;;;;;;21.17;12.85;;;8.00;99.90;;;;;;5076409;28;20024;-47
2021/12/30 00:26:04;;;;;;;27.10;14.32;;;8.10;99.90;;;;;;5082414;28;20103;-47
2021/12/30 00:28:30;;;;;;;29.50;15.23;;;8.10;99.90;;;;;;5090230;28;20059;-49
2021/12/30 00:30:56;;;;;;;24.67;14.40;;;8.10;99.90;;;;;;5090759;28;20038;-47
2021/12/30 00:33:22;;;;;;;29.98;15.88;;;8.20;99.90;;;;;;5090657;28;20032;-47
2021/12/30 00:35:48;;;;;;;33.42;17.02;;;8.20;99.90;;;;;;5090586;28;20027;-48
2021/12/30 00:38:14;;;;;;;31.17;17.10;;;8.30;99.90;;;;;;5089914;28;20110;-49
2021/12/30 00:40:41;;;;;;;38.20;18.63;;;8.30;99.90;;;;;;5090472;28;20089;-46
2021/12/30 00:43:07;;;;;;;38.00;19.52;;;8.30;99.90;;;;;;5090723;28;20012;-47
2021/12/30 00:45:35;;;;;;;40.40;19.42;;;8.30;99.90;;;;;;5090563;28;20457;-48
2021/12/30 00:48:01;;;;;;;42.25;20.05;;;8.30;99.90;;;;;;5089906;28;20028;-46
2021/12/30 00:50:28;;;;;;;47.08;19.15;;;8.40;99.90;;;;;;5090419;28;20020;-47
2021/12/30 00:52:54;;;;;;;40.22;20.52;;;8.40;99.90;;;;;;5083073;28;20029;-49
2021/12/30 00:55:20;;;;;;;44.95;20.88;;;8.40;99.90;;;;;;5076662;28;20019;-46
2021/12/30 00:57:46;;;;;;;50.42;22.55;;;8.40;99.90;;;;;;5071055;28;20031;-48
2021/12/30 01:00:15;;;;;;;54.88;23.17;;;8.50;99.90;;;;;;5074720;28;20020;-46
2021/12/30 01:02:42;;;;;;;43.35;21.65;;;8.50;99.90;;;;;;5076993;28;20156;-49
2021/12/30 01:05:09;;;;;;;47.30;21.40;;;8.60;99.90;;;;;;5086861;28;20053;-46
2021/12/30 01:07:34;;;;;;;54.78;21.90;;;8.60;99.90;;;;;;5094847;28;20023;-49
2021/12/30 01:10:00;;;;;;;50.97;22.50;;;8.60;99.90;;;;;;5095719;28;20032;-46
2021/12/30 01:12:27;;;;;;;45.17;21.00;;;8.60;99.90;;;;;;5095445;28;20020;-46
2021/12/30 01:14:52;;;;;;;44.60;20.70;;;8.60;99.90;;;;;;5095503;28;20072;-46
2021/12/30 01:17:27;;;;;;;53.17;22.02;;;8.70;99.90;;;;;;5094456;28;20529;-46
2021/12/30 01:19:53;;;;;;;50.55;22.55;;;8.70;99.90;;;;;;5095692;28;20028;-47
2021/12/30 01:22:22;;;;;;;54.90;24.05;;;8.70;99.90;;;;;;5095512;28;20493;-50
2021/12/30 01:24:49;;;;;;;54.38;23.20;;;8.70;99.90;;;;;;5095533;28;20385;-44
2021/12/30 01:27:15;;;;;;;49.55;21.38;;;8.70;99.90;;;;;;5094729;28;20034;-45
2021/12/30 01:29:41;;;;;;;42.20;20.25;;;8.70;99.90;;;;;;5095156;28;20028;-46
2021/12/30 01:32:06;;;;;;;54.25;22.75;;;8.70;99.90;;;;;;5089996;28;20367;-46
2021/12/30 01:34:33;;;;;;;49.65;21.23;;;8.70;99.90;;;;;;5086706;28;20034;-46
2021/12/30 01:37:04;;;;;;;56.00;22.30;;;8.60;99.90;;;;;;5095102;28;20174;-48
2021/12/30 01:39:31;;;;;;;48.75;21.33;;;8.70;99.90;;;;;;5094423;28;20481;-45
2021/12/30 01:41:58;;;;;;;55.70;23.73;;;8.70;99.90;;;;;;5095062;28;20455;-45
2021/12/30 01:44:24;;;;;;;61.50;23.73;;;8.70;99.90;;;;;;5095350;28;20034;-46
2021/12/30 01:46:51;;;;;;;80.85;28.70;;;8.70;99.90;;;;;;5094782;28;20063;-45
2021/12/30 01:49:17;;;;;;;76.40;27.00;;;8.70;99.90;;;;;;5094458;28;20024;-45
2021/12/30 01:51:43;;;;;;;71.82;27.80;;;8.70;99.90;;;;;;5094942;28;20469;-45
2021/12/30 01:54:10;;;;;;;78.70;28.92;;;8.70;99.90;;;;;;5094984;28;20036;-45
2021/12/30 01:56:36;;;;;;;75.30;30.27;;;8.80;99.90;;;;;;5094725;28;20111;-47
2021/12/30 01:59:02;;;;;;;75.60;29.27;;;8.80;99.90;;;;;;5094184;28;20112;-48
2021/12/30 02:01:28;;;;;;;73.45;28.92;;;8.90;99.90;;;;;;5093196;28;20031;-45
2021/12/30 02:03:54;;;;;;;81.70;32.72;;;8.90;99.90;;;;;;5081798;28;20024;-49
2021/12/30 02:06:20;;;;;;;95.68;34.15;;;8.90;99.90;;;;;;5094762;28;20508;-45
2021/12/30 02:08:46;;;;;;;111.25;35.20;;;8.90;99.90;;;;;;5094483;28;20028;-47
2021/12/30 02:11:12;;;;;;;102.38;35.22;;;9.00;99.90;;;;;;5094921;28;20032;-45
2021/12/30 02:13:37;;;;;;;97.68;34.80;;;9.00;99.90;;;;;;5092424;28;20397;-46
2021/12/30 02:16:03;;;;;;;116.82;37.67;;;9.00;99.90;;;;;;5091903;28;20052;-45
2021/12/30 02:18:29;;;;;;;106.32;36.30;;;9.00;99.90;;;;;;5090529;28;20032;-45
2021/12/30 02:20:58;;;;;;;103.25;35.35;;;9.10;99.90;;;;;;5091662;28;20498;-45
2021/12/30 02:23:32;;;;;;;109.28;35.60;;;9.10;99.90;;;;;;5090100;28;20440;-47
2021/12/30 02:26:02;;;;;;;96.53;33.42;;;9.10;99.90;;;;;;5090028;28;20569;-46
2021/12/30 02:28:30;;;;;;;87.78;33.20;;;9.10;99.90;;;;;;5090572;28;20031;-46
2021/12/30 02:30:58;;;;;;;102.55;33.97;;;9.10;99.90;;;;;;5091225;28;20554;-45
2021/12/30 02:33:25;;;;;;;94.78;34.67;;;9.20;99.90;;;;;;5081844;28;20032;-45
2021/12/30 02:35:51;;;;;;;114.18;35.53;;;9.10;99.90;;;;;;5087110;28;20382;-48
2021/12/30 02:38:18;;;;;;;91.03;32.97;;;9.10;99.90;;;;;;5090430;28;20378;-45
2021/12/30 02:40:49;;;;;;;82.55;31.83;;;9.20;99.90;;;;;;5107074;28;20448;-46
2021/12/30 02:43:17;;;;;;;104.03;36.22;;;9.20;99.90;;;;;;5091144;28;20020;-45
2021/12/30 02:45:44;;;;;;;92.07;33.00;;;9.20;99.90;;;;;;5091063;28;20436;-48
2021/12/30 02:48:19;;;;;;;98.25;35.65;;;9.20;99.90;;;;;;5090497;28;20051;-46
2021/12/30 02:50:45;;;;;;;112.15;39.33;;;9.30;99.90;;;;;;5090870;28;20469;-45
2021/12/30 02:53:12;;;;;;;99.45;35.63;;;9.30;99.90;;;;;;5085899;28;20294;-46
2021/12/30 02:55:38;;;;;;;102.75;36.58;;;9.30;99.90;;;;;;5082726;28;20047;-46
2021/12/30 02:58:04;;;;;;;119.60;35.40;;;9.40;99.90;;;;;;5090080;28;20031;-46
2021/12/30 03:00:30;;;;;;;101.25;33.55;;;9.40;99.90;;;;;;5090755;28;20359;-45
2021/12/30 03:02:56;;;;;;;94.68;35.65;;;9.40;99.90;;;;;;5089357;28;20024;-48
2021/12/30 03:05:24;;;;;;;104.05;36.20;;;9.40;99.90;;;;;;5089313;28;20384;-46
2021/12/30 03:07:50;;;;;;;84.55;34.92;;;9.40;99.90;;;;;;5089878;28;20036;-46
2021/12/30 03:10:18;;;;;;;107.18;34.45;;;9.40;99.90;;;;;;5090671;28;20034;-46
2021/12/30 03:12:44;;;;;;;93.43;34.25;;;9.40;99.90;;;;;;5090640;28;20039;-45
2021/12/30 03:15:14;;;;;;;80.20;32.28;;;9.50;99.90;;;;;;5090605;28;20038;-47
2021/12/30 03:17:40;;;;;;;81.03;32.65;;;9.50;99.90;;;;;;5089598;28;20032;-45
2021/12/30 03:20:09;;;;;;;83.63;31.08;;;9.50;99.90;;;;;;5089066;28;20024;-47
2021/12/30 03:22:39;;;;;;;78.70;29.58;;;9.50;99.90;;;;;;5088098;28;20160;-47
2021/12/30 03:25:07;;;;;;;89.35;30.90;;;9.50;99.90;;;;;;5094664;28;20490;-46
2021/12/30 03:27:33;;;;;;;83.25;27.52;;;9.50;99.90;;;;;;5089543;28;20476;-47
2021/12/30 03:29:58;;;;;;;99.85;32.90;;;9.40;99.90;;;;;;5088876;28;20027;-48
2021/12/30 03:32:24;;;;;;;84.40;28.98;;;9.40;99.90;;;;;;5090086;28;20047;-46
2021/12/30 03:34:49;;;;;;;79.13;30.00;;;9.40;99.90;;;;;;5088864;28;20084;-46
2021/12/30 03:37:15;;;;;;;77.18;28.50;;;9.40;99.90;;;;;;5088169;28;20335;-47
2021/12/30 03:39:41;;;;;;;79.63;27.52;;;9.40;99.90;;;;;;5089568;28;20426;-46
2021/12/30 03:42:07;;;;;;;78.03;26.70;;;9.40;99.90;;;;;;5090078;28;20043;-46
2021/12/30 03:44:32;;;;;;;59.63;23.85;;;9.50;99.90;;;;;;5088761;28;20466;-45
2021/12/30 03:46:59;;;;;;;83.55;27.33;;;9.40;99.90;;;;;;5089846;28;20028;-45
2021/12/30 03:49:24;;;;;;;79.00;24.33;;;9.40;99.90;;;;;;5089402;28;20035;-45
2021/12/30 03:51:52;;;;;;;70.30;21.80;;;9.40;99.90;;;;;;5088455;28;20390;-46
2021/12/30 03:54:18;;;;;;;82.88;25.67;;;9.40;99.90;;;;;;5081801;28;20012;-49
2021/12/30 03:56:43;;;;;;;70.53;24.60;;;9.40;99.90;;;;;;5084516;28;20028;-47
2021/12/30 03:59:09;;;;;;;65.63;22.58;;;9.40;99.90;;;;;;5089045;28;20024;-45
2021/12/30 04:01:36;;;;;;;52.15;21.77;;;9.40;99.90;;;;;;5089535;28;20048;-45
2021/12/30 04:04:02;;;;;;;68.78;21.98;;;9.40;99.90;;;;;;5089718;28;20024;-45
2021/12/30 04:06:28;;;;;;;63.00;22.02;;;9.40;99.90;;;;;;5089708;28;20031;-47
2021/12/30 04:08:57;;;;;;;69.57;23.42;;;9.40;99.90;;;;;;5088412;28;20027;-46
2021/12/30 04:11:25;;;;;;;66.47;22.07;;;9.50;99.90;;;;;;5088146;28;20417;-46
2021/12/30 04:13:50;;;;;;;74.03;23.45;;;9.40;99.90;;;;;;5089246;28;20520;-46
2021/12/30 04:16:18;;;;;;;69.53;23.05;;;9.40;99.90;;;;;;5089222;28;20027;-46
2021/12/30 04:18:45;;;;;;;67.03;22.83;;;9.40;99.90;;;;;;5088504;28;20016;-46
2021/12/30 04:21:11;;;;;;;67.68;24.30;;;9.40;99.90;;;;;;5074196;28;20051;-46
2021/12/30 04:23:36;;;;;;;55.03;20.95;;;9.40;99.90;;;;;;5069433;28;20016;-48
2021/12/30 04:26:02;;;;;;;80.47;23.52;;;9.40;99.90;;;;;;5072318;28;20028;-46
2021/12/30 04:28:30;;;;;;;76.70;21.92;;;9.40;99.90;;;;;;5068343;28;20029;-47
2021/12/30 04:30:56;;;;;;;76.88;24.90;;;9.40;99.90;;;;;;5066332;28;20497;-47
2021/12/30 04:33:21;;;;;;;76.03;24.38;;;9.40;99.90;;;;;;5069125;28;20063;-46
2021/12/30 04:35:47;;;;;;;67.72;23.17;;;9.30;99.90;;;;;;5067440;28;20116;-46
2021/12/30 04:38:12;;;;;;;78.40;25.33;;;9.30;99.90;;;;;;5067372;28;20024;-46
2021/12/30 04:40:38;;;;;;;75.57;24.58;;;9.30;99.90;;;;;;5068882;28;20036;-47
2021/12/30 04:43:03;;;;;;;70.78;23.92;;;9.40;99.90;;;;;;5068874;28;20497;-49
2021/12/30 04:45:29;;;;;;;62.17;23.40;;;9.40;99.90;;;;;;5067276;28;20082;-46
2021/12/30 04:47:55;;;;;;;62.08;23.08;;;9.40;99.90;;;;;;5068223;28;20031;-48
2021/12/30 04:50:20;;;;;;;81.03;23.40;;;9.50;99.90;;;;;;5067358;28;20452;-47
2021/12/30 04:52:46;;;;;;;79.90;25.35;;;9.40;99.90;;;;;;5068022;28;20025;-47
2021/12/30 04:55:12;;;;;;;71.93;24.15;;;9.40;99.90;;;;;;5079006;28;20029;-49
2021/12/30 04:57:38;;;;;;;60.85;21.38;;;9.40;99.90;;;;;;5088596;28;20036;-47
2021/12/30 05:00:08;;;;;;;81.68;22.90;;;9.40;99.90;;;;;;5088866;28;20040;-46
2021/12/30 05:02:49;;;;;;;55.33;20.50;;;9.30;99.90;;;;;;5088702;28;20393;-47
2021/12/30 05:05:15;;;;;;;63.00;19.45;;;9.40;99.90;;;;;;5089036;28;20024;-47
2021/12/30 05:07:41;;;;;;;74.30;20.38;;;9.40;99.90;;;;;;5086612;28;20028;-48
2021/12/30 05:10:06;;;;;;;61.85;19.65;;;9.40;99.90;;;;;;5087044;28;20020;-46
2021/12/30 05:12:32;;;;;;;80.18;19.50;;;9.50;99.90;;;;;;5088643;28;20084;-46
2021/12/30 05:14:57;;;;;;;67.95;16.88;;;9.50;99.90;;;;;;5104125;28;20017;-47
2021/12/30 05:17:28;;;;;;;54.28;16.45;;;9.50;99.90;;;;;;5087957;28;20028;-47
2021/12/30 05:19:54;;;;;;;62.70;17.45;;;9.50;99.90;;;;;;5087203;28;20085;-48
2021/12/30 05:22:19;;;;;;;73.25;18.95;;;9.50;99.90;;;;;;5088571;28;20627;-48
2021/12/30 05:24:45;;;;;;;60.47;17.50;;;9.50;99.90;;;;;;5078849;28;20020;-46
2021/12/30 05:27:10;;;;;;;57.78;15.18;;;9.50;99.90;;;;;;5085576;28;20073;-47
2021/12/30 05:29:36;;;;;;;56.30;16.75;;;9.50;99.90;;;;;;5088338;28;20028;-46
2021/12/30 05:32:01;;;;;;;65.82;16.65;;;9.50;99.90;;;;;;5088851;28;20545;-47
2021/12/30 05:34:27;;;;;;;63.85;17.45;;;9.50;99.90;;;;;;5088896;28;20317;-46
2021/12/30 05:36:52;;;;;;;63.15;16.17;;;9.60;99.90;;;;;;5087183;28;20029;-46
2021/12/30 05:39:18;;;;;;;50.33;14.70;;;9.60;99.90;;;;;;5086509;28;20068;-46
2021/12/30 05:41:43;;;;;;;47.47;13.27;;;9.60;99.90;;;;;;5088451;28;20036;-46
2021/12/30 05:44:09;;;;;;;54.53;14.18;;;9.60;99.90;;;;;;5088811;28;20024;-47
2021/12/30 05:46:34;;;;;;;53.42;14.60;;;9.60;99.90;;;;;;5088431;28;20063;-46
2021/12/30 05:49:00;;;;;;;59.50;13.48;;;9.60;99.90;;;;;;5090077;28;20031;-46
2021/12/30 05:51:26;;;;;;;54.63;14.18;;;9.60;99.90;;;;;;5092165;28;20032;-47
2021/12/30 05:53:51;;;;;;;45.10;12.65;;;9.50;99.90;;;;;;5088906;28;20028;-49
2021/12/30 05:56:17;;;;;;;50.03;14.10;;;9.50;99.90;;;;;;5083815;28;20020;-47
2021/12/30 05:58:42;;;;;;;54.55;14.55;;;9.40;99.90;;;;;;5091694;28;20048;-46
2021/12/30 06:01:08;;;;;;;56.08;13.00;;;9.40;99.90;;;;;;5090579;28;20397;-48
2021/12/30 06:03:33;;;;;;;59.55;13.93;;;9.50;99.90;;;;;;5090784;28;20023;-46
2021/12/30 06:05:59;;;;;;;53.80;13.40;;;9.50;99.90;;;;;;5091796;28;20377;-46
2021/12/30 06:08:24;;;;;;;45.75;13.60;;;9.40;99.90;;;;;;5090972;28;20020;-46
2021/12/30 06:10:50;;;;;;;44.85;14.05;;;9.40;99.90;;;;;;5091681;28;20430;-46
2021/12/30 06:13:15;;;;;;;50.80;13.45;;;9.40;99.90;;;;;;5091854;28;20016;-46
2021/12/30 06:15:41;;;;;;;58.97;14.88;;;9.40;99.90;;;;;;5078864;28;20103;-48
2021/12/30 06:18:06;;;;;;;57.40;13.95;;;9.30;99.90;;;;;;5085246;28;20025;-46
2021/12/30 06:20:32;;;;;;;60.45;14.82;;;9.40;99.90;;;;;;5094666;28;20013;-46
2021/12/30 06:22:58;;;;;;;34.72;12.55;;;9.40;99.90;;;;;;5081583;28;20028;-47
2021/12/30 06:25:24;;;;;;;67.28;13.07;;;9.30;99.90;;;;;;5079705;28;20079;-49
2021/12/30 06:27:49;;;;;;;55.40;12.65;;;9.40;99.90;;;;;;5070670;28;20086;-47
2021/12/30 06:30:15;;;;;;;52.97;14.93;;;9.40;99.90;;;;;;5071338;28;20095;-46
2021/12/30 06:32:41;;;;;;;56.97;13.65;;;9.40;99.90;;;;;;5071194;28;20016;-47
2021/12/30 06:35:08;;;;;;;52.30;13.02;;;9.40;99.90;;;;;;5071205;28;20078;-47
2021/12/30 06:37:35;;;;;;;40.22;12.52;;;9.40;99.90;;;;;;5068627;28;20052;-46
2021/12/30 06:40:00;;;;;;;48.85;13.98;;;9.40;99.90;;;;;;5070441;28;20124;-48
2021/12/30 06:42:26;;;;;;;43.25;13.18;;;9.40;99.90;;;;;;5071180;28;20103;-47
2021/12/30 06:44:52;;;;;;;49.55;12.43;;;9.40;99.90;;;;;;5071045;28;20021;-46
2021/12/30 06:47:17;;;;;;;60.42;13.80;;;9.40;99.90;;;;;;5070165;28;20031;-45
2021/12/30 06:49:43;;;;;;;52.45;13.93;;;9.40;99.90;;;;;;5070882;28;20024;-46
2021/12/30 06:52:10;;;;;;;49.50;12.20;;;9.40;99.90;;;;;;5070710;28;20429;-47
2021/12/30 06:54:37;;;;;;;47.13;13.40;;;9.50;99.90;;;;;;5078050;28;20032;-47
2021/12/30 06:57:03;;;;;;;54.88;13.55;;;9.50;99.90;;;;;;5088557;28;20032;-49
2021/12/30 06:59:30;;;;;;;60.17;13.38;;;9.60;99.90;;;;;;5089408;28;20123;-47
2021/12/30 07:01:57;;;;;;;61.53;14.45;;;9.60;99.90;;;;;;5090906;28;20078;-48
2021/12/30 07:04:25;;;;;;;52.42;12.30;;;9.60;99.90;;;;;;5090922;28;20515;-50
2021/12/30 07:06:51;;;;;;;48.13;12.32;;;9.60;99.90;;;;;;5090266;28;20028;-46
2021/12/30 07:09:16;;;;;;;56.90;14.18;;;9.60;99.90;;;;;;5069094;28;20028;-46
2021/12/30 07:11:42;;;;;;;56.45;13.27;;;9.70;99.90;;;;;;5071845;28;20031;-46
2021/12/30 07:14:07;;;;;;;44.08;12.73;;;9.80;99.90;;;;;;5074551;28;20668;-48
2021/12/30 07:16:33;;;;;;;47.47;12.70;;;9.80;99.90;;;;;;5070384;28;20069;-45
2021/12/30 07:18:58;;;;;;;55.13;13.57;;;9.80;99.90;;;;;;5070112;28;20373;-46
2021/12/30 07:21:23;;;;;;;49.83;11.93;;;9.80;99.90;;;;;;5070229;28;20059;-45
2021/12/30 07:23:49;;;;;;;53.30;13.38;;;9.80;99.90;;;;;;5071604;28;20027;-47
2021/12/30 07:26:14;;;;;;;45.53;14.32;;;9.80;99.90;;;;;;5073602;28;20015;-48
2021/12/30 07:28:40;;;;;;;55.33;14.13;;;9.90;99.90;;;;;;5069683;28;20484;-47
2021/12/30 07:31:06;;;;;;;43.67;13.32;;;9.90;99.90;;;;;;5070064;28;20096;-47
2021/12/30 07:33:31;;;;;;;36.17;13.18;;;9.90;99.90;;;;;;5069890;28;20025;-47
2021/12/30 07:35:57;;;;;;;40.85;13.15;;;9.90;99.90;;;;;;5069933;28;20036;-46
2021/12/30 07:38:23;;;;;;;41.60;13.60;;;10.00;99.90;;;;;;5068606;28;20225;-46
2021/12/30 07:40:49;;;;;;;40.35;14.55;;;10.00;99.90;;;;;;5069814;28;20019;-48
2021/12/30 07:43:14;;;;;;;49.58;15.25;;;10.00;99.90;;;;;;5073533;28;20033;-46
2021/12/30 07:45:40;;;;;;;37.58;14.55;;;10.00;99.90;;;;;;5073117;28;20521;-46
2021/12/30 07:48:05;;;;;;;45.67;15.90;;;10.00;99.90;;;;;;5069072;28;20487;-46
2021/12/30 07:50:31;;;;;;;42.55;14.95;;;10.00;99.90;;;;;;5072129;28;20119;-47
2021/12/30 07:52:57;;;;;;;51.05;15.68;;;10.00;99.90;;;;;;5069411;28;20043;-47
2021/12/30 07:55:23;;;;;;;44.17;14.52;;;10.10;99.90;;;;;;5074615;28;20055;-48
2021/12/30 07:57:48;;;;;;;48.92;15.75;;;10.10;99.90;;;;;;5090813;28;20052;-49
2021/12/30 08:00:16;;;;;;;49.85;15.75;;;10.20;99.90;;;;;;5091407;28;20020;-47
2021/12/30 08:02:43;;;;;;;43.80;16.67;;;10.20;99.90;;;;;;5091260;28;20020;-49
2021/12/30 08:05:14;;;;;;;38.03;16.27;;;10.20;99.90;;;;;;5091243;28;20024;-49
2021/12/30 08:07:40;;;;;;;47.53;17.80;;;10.30;99.90;;;;;;5090399;28;20035;-48
2021/12/30 08:10:10;;;;;;;46.08;16.13;;;10.30;99.90;;;;;;5086711;28;20025;-46
2021/12/30 08:12:37;;;;;;;43.60;16.52;;;10.40;99.90;;;;;;5089903;28;20123;-49
2021/12/30 08:15:04;;;;;;;47.25;17.17;;;10.40;99.90;;;;;;5090963;28;20028;-47
2021/12/30 08:17:29;;;;;;;39.63;17.48;;;10.50;99.90;;;;;;5090065;28;20033;-47
2021/12/30 08:19:54;;;;;;;48.83;17.52;;;10.50;99.90;;;;;;5089440;28;20025;-47
2021/12/30 08:22:20;;;;;;;56.47;19.70;;;10.50;99.90;;;;;;5090737;28;20492;-46
2021/12/30 08:24:45;;;;;;;49.75;19.80;;;10.50;99.90;;;;;;5078343;28;20040;-48
2021/12/30 08:27:12;;;;;;;61.80;19.90;;;10.60;99.90;;;;;;5081346;28;20031;-47
2021/12/30 08:29:38;;;;;;;46.80;17.77;;;10.60;99.90;;;;;;5089144;28;20021;-47
2021/12/30 08:32:06;;;;;;;44.63;19.05;;;10.60;99.90;;;;;;5088943;28;20153;-46
2021/12/30 08:34:32;;;;;;;55.47;20.92;;;10.60;99.90;;;;;;5089435;28;20024;-46
2021/12/30 08:36:57;;;;;;;52.63;17.98;;;10.60;99.90;;;;;;5088838;28;20404;-48
2021/12/30 08:39:22;;;;;;;48.88;18.10;;;10.60;99.90;;;;;;5086479;28;20115;-47
2021/12/30 08:41:48;;;;;;;42.80;17.83;;;10.60;99.90;;;;;;5078900;28;20028;-48
2021/12/30 08:44:14;;;;;;;48.35;18.50;;;10.60;99.90;;;;;;5068399;28;20091;-47
2021/12/30 08:46:40;;;;;;;48.70;18.38;;;10.70;99.90;;;;;;5070403;28;20036;-46
2021/12/30 08:49:05;;;;;;;47.92;19.42;;;10.60;99.90;;;;;;5068181;28;20097;-45
2021/12/30 08:51:31;;;;;;;47.22;17.52;;;10.70;99.90;;;;;;5068308;28;20035;-45
2021/12/30 08:53:56;;;;;;;43.35;16.02;;;10.70;99.90;;;;;;5066343;28;20028;-46
2021/12/30 08:56:23;;;;;;;42.75;17.35;;;10.70;99.90;;;;;;5070326;28;20031;-46
2021/12/30 08:58:48;;;;;;;47.35;17.23;;;10.70;99.90;;;;;;5071226;28;20035;-45
2021/12/30 09:01:14;;;;;;;84.65;38.50;;;10.70;99.90;;;;;;5068286;28;20013;-45
2021/12/30 09:03:40;;;;;;;72.13;34.35;;;10.70;99.90;;;;;;5067658;28;20040;-45
2021/12/30 09:06:05;;;;;;;34.60;15.88;;;10.70;99.90;;;;;;5067924;28;20029;-45
2021/12/30 09:08:31;;;;;;;44.67;16.10;;;10.70;99.90;;;;;;5066958;28;20183;-45
2021/12/30 09:10:58;;;;;;;54.00;18.70;;;10.70;99.90;;;;;;5067957;28;20021;-48
2021/12/30 09:13:24;;;;;;;43.88;18.42;;;10.80;99.90;;;;;;5068090;28;20509;-45
2021/12/30 09:15:49;;;;;;;50.20;18.92;;;10.70;99.90;;;;;;5067611;28;20021;-45
2021/12/30 09:18:15;;;;;;;35.72;18.80;;;10.80;99.90;;;;;;5066871;28;20355;-46
2021/12/30 09:20:42;;;;;;;35.83;16.50;;;10.80;99.90;;;;;;5067579;28;20636;-47
2021/12/30 09:23:09;;;;;;;49.00;17.23;;;10.80;99.90;;;;;;5067387;28;20017;-48
2021/12/30 09:25:36;;;;;;;43.85;17.83;;;10.80;99.90;;;;;;5079387;28;20024;-47
2021/12/30 09:28:03;;;;;;;52.85;17.85;;;10.80;99.90;;;;;;5088844;28;20027;-45
2021/12/30 09:30:29;;;;;;;40.13;17.35;;;10.80;99.90;;;;;;5092478;28;20481;-47
2021/12/30 09:32:57;;;;;;;40.25;17.42;;;10.80;99.90;;;;;;5092423;28;20421;-46
2021/12/30 09:35:23;;;;;;;33.10;14.88;;;10.80;99.90;;;;;;5092273;28;20024;-45
2021/12/30 09:37:50;;;;;;;38.10;14.77;;;10.90;99.90;;;;;;5091883;28;20085;-47
2021/12/30 09:40:17;;;;;;;48.60;16.45;;;10.90;99.90;;;;;;5086009;28;20020;-47
2021/12/30 09:42:47;;;;;;;36.78;16.88;;;11.00;99.90;;;;;;5077748;28;20119;-48
2021/12/30 09:45:13;;;;;;;39.43;14.57;;;11.00;99.90;;;;;;5074199;28;20388;-48
2021/12/30 09:47:51;;;;;;;38.08;13.55;;;11.00;99.90;;;;;;5071585;28;20502;-48
2021/12/30 09:50:19;;;;;;;40.28;14.40;;;11.10;99.90;;;;;;5071852;28;20090;-47
2021/12/30 09:52:45;;;;;;;37.67;13.13;;;11.10;99.90;;;;;;5071830;28;20086;-47
2021/12/30 09:55:11;;;;;;;33.90;12.73;;;11.10;99.90;;;;;;5079242;28;20036;-47
2021/12/30 09:57:38;;;;;;;36.78;13.98;;;11.10;99.90;;;;;;5085226;28;20032;-47
2021/12/30 10:00:07;;;;;;;37.00;12.10;;;11.10;99.90;;;;;;5091840;28;20500;-47
2021/12/30 10:02:33;;;;;;;28.57;11.80;;;11.20;99.90;;;;;;5091947;28;20024;-47
2021/12/30 10:05:07;;;;;;;24.05;10.13;;;11.20;99.90;;;;;;5092089;28;20036;-47
2021/12/30 10:07:33;;;;;;;25.17;10.35;;;11.20;99.90;;;;;;5091300;28;20524;-48
2021/12/30 10:10:03;;;;;;;28.52;9.32;;;11.20;99.90;;;;;;5091620;28;20028;-47
2021/12/30 10:12:39;;;;;;;32.47;10.63;;;11.20;99.90;;;;;;5091759;28;20030;-47
2021/12/30 10:15:06;;;;;;;23.67;9.40;;;11.30;99.90;;;;;;5091704;28;20491;-48
2021/12/30 10:17:31;;;;;;;24.40;9.10;;;11.20;99.90;;;;;;5090943;28;20073;-47
2021/12/30 10:20:16;;;;;;;30.63;8.85;;;11.30;99.90;;;;;;5091590;28;20016;-50
2021/12/30 10:22:41;;;;;;;17.40;7.68;;;11.30;99.90;;;;;;5091585;28;20103;-47
2021/12/30 10:25:27;;;;;;;21.98;9.07;;;11.30;99.90;;;;;;5081091;28;20489;-47
2021/12/30 10:27:54;;;;;;;24.70;7.18;;;11.30;99.90;;;;;;5086966;28;20055;-50
2021/12/30 10:30:31;;;;;;;17.52;7.03;;;11.30;99.90;;;;;;5092115;28;20020;-50
2021/12/30 10:33:15;;;;;;;12.38;6.65;;;11.40;99.90;;;;;;5091739;28;20028;-47
2021/12/30 10:35:41;;;;;;;19.98;6.88;;;11.30;99.90;;;;;;5069834;28;20063;-47
2021/12/30 10:38:11;;;;;;;16.83;7.35;;;11.40;99.90;;;;;;5071863;28;20595;-49
2021/12/30 10:40:41;;;;;;;24.95;6.88;;;11.40;99.90;;;;;;5070912;28;20067;-47
2021/12/30 10:43:12;;;;;;;20.27;6.25;;;11.40;99.90;;;;;;5072488;28;20029;-49
2021/12/30 10:45:38;;;;;;;13.93;6.03;;;11.40;99.90;;;;;;5071120;28;20023;-47
2021/12/30 10:48:07;;;;;;;22.38;6.72;;;11.40;99.90;;;;;;5071626;28;20024;-50
2021/12/30 10:50:32;;;;;;;13.50;5.95;;;11.40;99.90;;;;;;5072260;28;20049;-49
2021/12/30 10:52:58;;;;;;;20.75;6.32;;;11.40;99.90;;;;;;5072156;28;20032;-48
2021/12/30 10:55:24;;;;;;;17.05;6.28;;;11.40;99.90;;;;;;5072421;28;20021;-48
2021/12/30 10:57:51;;;;;;;14.43;5.78;;;11.40;99.90;;;;;;5087502;28;20024;-47
2021/12/30 11:00:25;;;;;;;21.02;5.88;;;11.50;99.90;;;;;;5092392;28;20107;-50
2021/12/30 11:02:51;;;;;;;13.55;6.47;;;11.50;99.90;;;;;;5092379;28;20551;-47
2021/12/30 11:05:18;;;;;;;15.48;5.75;;;11.50;99.90;;;;;;5092368;28;20045;-49
2021/12/30 11:07:47;;;;;;;11.88;4.95;;;11.60;99.90;;;;;;5091623;28;20481;-48
2021/12/30 11:10:15;;;;;;;14.82;5.10;;;11.60;99.90;;;;;;5091936;28;20110;-50
2021/12/30 11:12:46;;;;;;;8.38;5.18;;;11.60;99.90;;;;;;5091908;28;20035;-50
2021/12/30 11:15:27;;;;;;;10.63;4.65;;;11.60;99.90;;;;;;5091998;28;20070;-47
2021/12/30 11:18:14;;;;;;;11.48;4.28;;;11.70;99.90;;;;;;5089681;28;20635;-49
2021/12/30 11:20:42;;;;;;;7.68;4.35;;;11.70;99.90;;;;;;5070305;28;20031;-49
2021/12/30 11:23:09;;;;;;;11.88;4.47;;;11.70;99.90;;;;;;5071639;28;20024;-50
2021/12/30 11:25:35;;;;;;;12.48;4.35;;;11.70;99.90;;;;;;5079369;28;20028;-47
2021/12/30 11:28:01;;;;;;;10.68;3.88;;;11.70;99.90;;;;;;5067379;28;20127;-49
2021/12/30 11:30:27;;;;;;;10.55;4.22;;;11.70;99.90;;;;;;5071191;28;20040;-48
2021/12/30 11:32:53;;;;;;;9.45;4.03;;;11.80;99.90;;;;;;5071032;28;20376;-46
2021/12/30 11:35:21;;;;;;;7.38;3.92;;;11.80;99.90;;;;;;5070950;28;20069;-48
2021/12/30 11:37:48;;;;;;;5.35;3.22;;;11.80;99.90;;;;;;5069509;28;20028;-50
2021/12/30 11:40:17;;;;;;;6.13;3.47;;;11.90;99.90;;;;;;5070526;28;20029;-46
2021/12/30 11:42:49;;;;;;;7.70;3.30;;;11.90;99.90;;;;;;5070689;28;20020;-48
2021/12/30 11:45:37;;;;;;;8.52;4.00;;;11.90;99.90;;;;;;5069692;28;20103;-46
2021/12/30 11:48:07;;;;;;;4.90;2.90;;;11.90;99.90;;;;;;5068702;28;20028;-48
2021/12/30 11:50:37;;;;;;;5.07;3.00;;;11.90;99.90;;;;;;5068804;28;20052;-47
2021/12/30 11:53:11;;;;;;;6.68;3.10;;;11.90;99.90;;;;;;5067705;28;20273;-46
2021/12/30 11:55:56;;;;;;;6.38;3.03;;;12.00;99.90;;;;;;5069796;28;20024;-49
2021/12/30 11:58:37;;;;;;;7.03;3.33;;;12.00;99.90;;;;;;5048177;28;20021;-47
2021/12/30 12:01:11;;;;;;;5.65;3.05;;;12.00;99.90;;;;;;5048800;28;20025;-47
2021/12/30 12:03:43;;;;;;;4.93;3.00;;;11.90;99.90;;;;;;5051347;28;20086;-47
2021/12/30 12:06:34;;;;;;;5.22;2.75;;;11.90;99.90;;;;;;5069169;28;20024;-48
2021/12/30 12:09:14;;;;;;;5.70;2.95;;;11.90;99.90;;;;;;5068199;28;20027;-47
2021/12/30 12:11:40;;;;;;;;;;;12.00;99.90;;;;;;5068826;28;20485;-46
2021/12/30 12:14:19;;;;;;;2.83;2.20;;;12.00;99.90;;;;;;5068820;28;19931;-47
2021/12/30 12:17:06;;;;;;;5.43;2.78;;;12.00;99.90;;;;;;5068769;28;20517;-46
2021/12/30 12:19:41;;;;;;;5.03;2.50;;;12.00;99.90;;;;;;5068275;28;20021;-47
2021/12/30 12:22:18;;;;;;;4.40;2.35;;;12.00;99.90;;;;;;5069704;28;20013;-47
2021/12/30 12:24:46;;;;;;;4.93;2.88;;;12.00;99.90;;;;;;5075430;28;20024;-49
2021/12/30 12:27:18;;;;;;;3.47;2.67;;;12.00;99.90;;;;;;5067215;28;20036;-47
2021/12/30 12:29:43;;;;;;;3.17;2.50;;;12.00;99.90;;;;;;5068274;28;20085;-47
2021/12/30 12:32:14;;;;;;;5.25;2.60;;;11.90;99.90;;;;;;5067316;28;20024;-48
2021/12/30 12:34:50;;;;;;;4.93;2.90;;;12.00;99.90;;;;;;5068275;28;20024;-47
2021/12/30 12:37:32;;;;;;;9.48;3.60;;;12.00;99.90;;;;;;5060423;28;20128;-48